Airfield :
LOGIN :

Register | Disclaimer

   EN    FR    IT 

 










Legend :    VFR   Marginal VFR   IFR   Intensive IFR   Very Intensive IFR
Visi :
Ceiling :
>= 8 km
>= 3000ft
5 to 8 km
1000 to 3000 ft
1500m to 5 km
500 to 1000 ft
800 to 1500m
200 to 500 ft
< 800m
< 200 ft
Symbols :   Thunderstorms  Fog  Heavy snow  Heavy precipitations  Wind > 20 kt
SIGMETs :     Misc.  Thunderstorms  Icing  Turbulence  Mountain Waves  Volcanic Ashes







- Airport Elevation : 286 ft
- IATA code : FFD


EGVA - RAF Fairford

CURRENT METAR :
  • 212356Z AUTO 27015KT 9999 BKN025 OVC035 11/08 A2968 RMK AO2 CIG 024V032 SLP054 60000 T01080078 10116 20104 401460104 52030 $

EXPIRED METARs :
  • 212256Z AUTO 26015KT 9999 OVC031 11/08 A2964 RMK AO2 SLP041 T01120081 $
  • 212156Z AUTO 26015KT 9999 BKN034 BKN050 11/08 A2962 RMK AO2 SLP034 T01120084 $

Expired Forecast.
No reported NOTAMs for that airfield.
1 SIGMET reported for the London FIR (EGTT) :
 
Severe turbulence
EGTT SIGMET 06 VALID 212200/220200 EGRR
EGTT LONDON FIR SEV TURB FCST WI N5040 E00128 - N5000 W00015 - N5000 W00200 - N4926 W00458 - N5125 W00714 - N5220 W00530 - N5500 W00530 - N5058 E00128 - N5040 E00128 SFC/FL060 MOV NE 05KT WKN=



MET'MAP, your aeronautical weather chart ! - Copyright ORBIFLY December 2007 - Disclaimer

ORBIFLY MET'MAP TEAM :

Programming & Development : Alexandra Zaïnal
Concept & Development : Baudouin d'Aumeries
Co-Development & Prog : Marc-Olivier Méhu
Technical & hardware support : Manuel Goepfert

Contact : metmap@orbifly.com




SOURCES & CREDITS :

   NOAA